sensor_id;sensor_type;location;lat;lon;timestamp;P1;durP1;ratioP1;P2;durP2;ratioP2
68010;SDS011;54794;48.348;7.878;2024-03-02T00:00:24;1.23;;;0.60;;
68010;SDS011;54794;48.348;7.878;2024-03-02T00:02:51;1.42;;;0.55;;
68010;SDS011;54794;48.348;7.878;2024-03-02T00:05:19;1.15;;;0.55;;
68010;SDS011;54794;48.348;7.878;2024-03-02T00:07:55;1.00;;;0.47;;
68010;SDS011;54794;48.348;7.878;2024-03-02T00:10:27;1.00;;;0.52;;
68010;SDS011;54794;48.348;7.878;2024-03-02T00:13:07;1.20;;;0.43;;
68010;SDS011;54794;48.348;7.878;2024-03-02T00:15:42;0.68;;;0.47;;
68010;SDS011;54794;48.348;7.878;2024-03-02T00:18:16;0.70;;;0.40;;
68010;SDS011;54794;48.348;7.878;2024-03-02T00:20:58;0.70;;;0.40;;
68010;SDS011;54794;48.348;7.878;2024-03-02T00:23:27;0.95;;;0.40;;
68010;SDS011;54794;48.348;7.878;2024-03-02T00:25:57;3.00;;;0.40;;
68010;SDS011;54794;48.348;7.878;2024-03-02T00:31:05;0.73;;;0.40;;
68010;SDS011;54794;48.348;7.878;2024-03-02T00:36:10;0.63;;;0.30;;
68010;SDS011;54794;48.348;7.878;2024-03-02T00:38:46;0.63;;;0.30;;
68010;SDS011;54794;48.348;7.878;2024-03-02T00:41:21;0.70;;;0.50;;
68010;SDS011;54794;48.348;7.878;2024-03-02T00:43:59;0.47;;;0.30;;
68010;SDS011;54794;48.348;7.878;2024-03-02T00:46:29;0.85;;;0.57;;
68010;SDS011;54794;48.348;7.878;2024-03-02T00:49:00;0.77;;;0.50;;
68010;SDS011;54794;48.348;7.878;2024-03-02T00:51:44;1.25;;;0.30;;
68010;SDS011;54794;48.348;7.878;2024-03-02T00:54:15;0.50;;;0.32;;
68010;SDS011;54794;48.348;7.878;2024-03-02T00:56:51;0.30;;;0.20;;
68010;SDS011;54794;48.348;7.878;2024-03-02T00:59:25;0.45;;;0.40;;
68010;SDS011;54794;48.348;7.878;2024-03-02T01:01:52;0.90;;;0.30;;
68010;SDS011;54794;48.348;7.878;2024-03-02T01:04:20;0.65;;;0.40;;
68010;SDS011;54794;48.348;7.878;2024-03-02T01:06:47;0.60;;;0.38;;
68010;SDS011;54794;48.348;7.878;2024-03-02T01:11:43;0.65;;;0.40;;
68010;SDS011;54794;48.348;7.878;2024-03-02T01:14:09;0.82;;;0.30;;
68010;SDS011;54794;48.348;7.878;2024-03-02T01:16:36;0.95;;;0.40;;
68010;SDS011;54794;48.348;7.878;2024-03-02T01:19:03;1.13;;;0.32;;
68010;SDS011;54794;48.348;7.878;2024-03-02T01:21:30;0.35;;;0.20;;
68010;SDS011;54794;48.348;7.878;2024-03-02T01:24:00;0.88;;;0.50;;
68010;SDS011;54794;48.348;7.878;2024-03-02T01:26:27;0.68;;;0.40;;
68010;SDS011;54794;48.348;7.878;2024-03-02T01:28:54;0.38;;;0.30;;
68010;SDS011;54794;48.348;7.878;2024-03-02T01:31:21;1.15;;;0.40;;
68010;SDS011;54794;48.348;7.878;2024-03-02T01:33:47;0.47;;;0.32;;
68010;SDS011;54794;48.348;7.878;2024-03-02T01:36:14;0.50;;;0.30;;
68010;SDS011;54794;48.348;7.878;2024-03-02T01:38:41;0.50;;;0.30;;
68010;SDS011;54794;48.348;7.878;2024-03-02T01:41:08;0.30;;;0.20;;
68010;SDS011;54794;48.348;7.878;2024-03-02T01:43:35;0.80;;;0.52;;
68010;SDS011;54794;48.348;7.878;2024-03-02T01:46:05;1.48;;;0.30;;
68010;SDS011;54794;48.348;7.878;2024-03-02T01:48:32;0.63;;;0.40;;
68010;SDS011;54794;48.348;7.878;2024-03-02T01:51:00;0.32;;;0.30;;
68010;SDS011;54794;48.348;7.878;2024-03-02T01:53:27;1.02;;;0.50;;
68010;SDS011;54794;48.348;7.878;2024-03-02T01:55:54;0.50;;;0.40;;
68010;SDS011;54794;48.348;7.878;2024-03-02T01:58:21;0.70;;;0.38;;
68010;SDS011;54794;48.348;7.878;2024-03-02T02:00:48;0.85;;;0.50;;
68010;SDS011;54794;48.348;7.878;2024-03-02T02:03:16;0.90;;;0.38;;
68010;SDS011;54794;48.348;7.878;2024-03-02T02:05:43;0.45;;;0.30;;
68010;SDS011;54794;48.348;7.878;2024-03-02T02:08:10;1.05;;;0.50;;
68010;SDS011;54794;48.348;7.878;2024-03-02T02:10:37;1.17;;;0.40;;
68010;SDS011;54794;48.348;7.878;2024-03-02T02:13:04;0.65;;;0.30;;
68010;SDS011;54794;48.348;7.878;2024-03-02T02:15:31;0.50;;;0.38;;
68010;SDS011;54794;48.348;7.878;2024-03-02T02:18:01;0.50;;;0.30;;
68010;SDS011;54794;48.348;7.878;2024-03-02T02:20:28;0.35;;;0.20;;
68010;SDS011;54794;48.348;7.878;2024-03-02T02:23:02;0.70;;;0.35;;
68010;SDS011;54794;48.348;7.878;2024-03-02T02:25:32;0.75;;;0.30;;
68010;SDS011;54794;48.348;7.878;2024-03-02T02:27:59;0.45;;;0.30;;
68010;SDS011;54794;48.348;7.878;2024-03-02T02:30:26;3.50;;;0.35;;
68010;SDS011;54794;48.348;7.878;2024-03-02T02:32:57;0.80;;;0.30;;
68010;SDS011;54794;48.348;7.878;2024-03-02T02:35:25;0.40;;;0.32;;
68010;SDS011;54794;48.348;7.878;2024-03-02T02:37:53;0.30;;;0.20;;
68010;SDS011;54794;48.348;7.878;2024-03-02T02:40:22;0.47;;;0.30;;
68010;SDS011;54794;48.348;7.878;2024-03-02T02:45:18;0.60;;;0.50;;
68010;SDS011;54794;48.348;7.878;2024-03-02T02:47:45;1.10;;;0.40;;
68010;SDS011;54794;48.348;7.878;2024-03-02T02:50:12;0.80;;;0.50;;
68010;SDS011;54794;48.348;7.878;2024-03-02T02:52:40;0.70;;;0.32;;
68010;SDS011;54794;48.348;7.878;2024-03-02T02:55:09;0.38;;;0.30;;
68010;SDS011;54794;48.348;7.878;2024-03-02T02:57:39;0.77;;;0.43;;
68010;SDS011;54794;48.348;7.878;2024-03-02T03:00:13;0.77;;;0.40;;
68010;SDS011;54794;48.348;7.878;2024-03-02T03:02:47;0.50;;;0.30;;
68010;SDS011;54794;48.348;7.878;2024-03-02T03:05:17;0.75;;;0.30;;
68010;SDS011;54794;48.348;7.878;2024-03-02T03:07:45;0.60;;;0.32;;
68010;SDS011;54794;48.348;7.878;2024-03-02T03:10:14;0.80;;;0.40;;
68010;SDS011;54794;48.348;7.878;2024-03-02T03:12:42;0.43;;;0.30;;
68010;SDS011;54794;48.348;7.878;2024-03-02T03:15:10;0.85;;;0.35;;
68010;SDS011;54794;48.348;7.878;2024-03-02T03:17:38;0.57;;;0.30;;
68010;SDS011;54794;48.348;7.878;2024-03-02T03:20:06;0.63;;;0.40;;
68010;SDS011;54794;48.348;7.878;2024-03-02T03:22:36;0.85;;;0.40;;
68010;SDS011;54794;48.348;7.878;2024-03-02T03:25:07;1.50;;;0.40;;
68010;SDS011;54794;48.348;7.878;2024-03-02T03:27:36;0.45;;;0.30;;
68010;SDS011;54794;48.348;7.878;2024-03-02T03:30:04;0.40;;;0.35;;
68010;SDS011;54794;48.348;7.878;2024-03-02T03:32:32;0.60;;;0.30;;
68010;SDS011;54794;48.348;7.878;2024-03-02T03:34:59;0.60;;;0.38;;
68010;SDS011;54794;48.348;7.878;2024-03-02T03:37:26;0.73;;;0.30;;
68010;SDS011;54794;48.348;7.878;2024-03-02T03:39:59;0.50;;;0.22;;
68010;SDS011;54794;48.348;7.878;2024-03-02T03:42:27;0.63;;;0.30;;
68010;SDS011;54794;48.348;7.878;2024-03-02T03:44:54;0.50;;;0.30;;
68010;SDS011;54794;48.348;7.878;2024-03-02T03:47:21;0.32;;;0.28;;
68010;SDS011;54794;48.348;7.878;2024-03-02T03:49:48;0.38;;;0.30;;
68010;SDS011;54794;48.348;7.878;2024-03-02T03:52:15;0.93;;;0.40;;
68010;SDS011;54794;48.348;7.878;2024-03-02T03:54:42;0.90;;;0.28;;
68010;SDS011;54794;48.348;7.878;2024-03-02T03:57:10;0.98;;;0.40;;
68010;SDS011;54794;48.348;7.878;2024-03-02T03:59:40;0.50;;;0.40;;
68010;SDS011;54794;48.348;7.878;2024-03-02T04:02:08;0.25;;;0.20;;
68010;SDS011;54794;48.348;7.878;2024-03-02T04:04:35;0.80;;;0.30;;
68010;SDS011;54794;48.348;7.878;2024-03-02T04:07:02;0.65;;;0.30;;
68010;SDS011;54794;48.348;7.878;2024-03-02T04:09:29;2.28;;;0.50;;
68010;SDS011;54794;48.348;7.878;2024-03-02T04:11:56;1.38;;;0.32;;
68010;SDS011;54794;48.348;7.878;2024-03-02T04:14:23;0.57;;;0.38;;
68010;SDS011;54794;48.348;7.878;2024-03-02T04:16:50;0.77;;;0.40;;
68010;SDS011;54794;48.348;7.878;2024-03-02T04:19:19;1.05;;;0.30;;
68010;SDS011;54794;48.348;7.878;2024-03-02T04:21:46;1.08;;;0.50;;
68010;SDS011;54794;48.348;7.878;2024-03-02T04:24:13;1.10;;;0.55;;
68010;SDS011;54794;48.348;7.878;2024-03-02T04:26:40;0.47;;;0.35;;
68010;SDS011;54794;48.348;7.878;2024-03-02T04:29:07;0.60;;;0.40;;
68010;SDS011;54794;48.348;7.878;2024-03-02T04:31:34;0.65;;;0.30;;
68010;SDS011;54794;48.348;7.878;2024-03-02T04:34:00;0.35;;;0.30;;
68010;SDS011;54794;48.348;7.878;2024-03-02T04:36:28;0.80;;;0.45;;
68010;SDS011;54794;48.348;7.878;2024-03-02T04:38:54;0.70;;;0.52;;
68010;SDS011;54794;48.348;7.878;2024-03-02T04:41:21;0.85;;;0.38;;
68010;SDS011;54794;48.348;7.878;2024-03-02T04:43:48;0.70;;;0.50;;
68010;SDS011;54794;48.348;7.878;2024-03-02T04:46:17;0.35;;;0.30;;
68010;SDS011;54794;48.348;7.878;2024-03-02T04:48:44;0.63;;;0.40;;
68010;SDS011;54794;48.348;7.878;2024-03-02T04:51:11;1.05;;;0.43;;
68010;SDS011;54794;48.348;7.878;2024-03-02T04:53:42;0.60;;;0.30;;
68010;SDS011;54794;48.348;7.878;2024-03-02T04:56:09;0.17;;;0.17;;
68010;SDS011;54794;48.348;7.878;2024-03-02T04:58:54;0.55;;;0.35;;
68010;SDS011;54794;48.348;7.878;2024-03-02T05:01:28;0.35;;;0.28;;
68010;SDS011;54794;48.348;7.878;2024-03-02T05:03:55;0.28;;;0.25;;
68010;SDS011;54794;48.348;7.878;2024-03-02T05:06:23;0.60;;;0.40;;
68010;SDS011;54794;48.348;7.878;2024-03-02T05:08:50;0.65;;;0.45;;
68010;SDS011;54794;48.348;7.878;2024-03-02T05:11:17;0.40;;;0.30;;
68010;SDS011;54794;48.348;7.878;2024-03-02T05:14:02;0.28;;;0.28;;
68010;SDS011;54794;48.348;7.878;2024-03-02T05:16:33;0.60;;;0.40;;
68010;SDS011;54794;48.348;7.878;2024-03-02T05:19:05;0.65;;;0.45;;
68010;SDS011;54794;48.348;7.878;2024-03-02T05:21:34;0.60;;;0.50;;
68010;SDS011;54794;48.348;7.878;2024-03-02T05:24:01;0.50;;;0.40;;
68010;SDS011;54794;48.348;7.878;2024-03-02T05:26:31;1.10;;;0.38;;
68010;SDS011;54794;48.348;7.878;2024-03-02T05:28:58;0.57;;;0.40;;
68010;SDS011;54794;48.348;7.878;2024-03-02T05:31:25;0.90;;;0.40;;
68010;SDS011;54794;48.348;7.878;2024-03-02T05:33:52;0.93;;;0.55;;
68010;SDS011;54794;48.348;7.878;2024-03-02T05:36:23;0.60;;;0.47;;
68010;SDS011;54794;48.348;7.878;2024-03-02T05:38:50;0.35;;;0.30;;
68010;SDS011;54794;48.348;7.878;2024-03-02T05:41:17;0.80;;;0.40;;
68010;SDS011;54794;48.348;7.878;2024-03-02T05:43:44;1.52;;;0.28;;
68010;SDS011;54794;48.348;7.878;2024-03-02T05:46:11;0.60;;;0.40;;
68010;SDS011;54794;48.348;7.878;2024-03-02T05:48:38;0.50;;;0.35;;
68010;SDS011;54794;48.348;7.878;2024-03-02T05:51:05;1.40;;;0.30;;
68010;SDS011;54794;48.348;7.878;2024-03-02T05:53:32;0.55;;;0.40;;
68010;SDS011;54794;48.348;7.878;2024-03-02T05:56:00;0.63;;;0.50;;
68010;SDS011;54794;48.348;7.878;2024-03-02T05:58:30;0.50;;;0.40;;
68010;SDS011;54794;48.348;7.878;2024-03-02T06:01:33;0.40;;;0.38;;
68010;SDS011;54794;48.348;7.878;2024-03-02T06:04:01;0.50;;;0.40;;
68010;SDS011;54794;48.348;7.878;2024-03-02T06:06:27;0.65;;;0.40;;
68010;SDS011;54794;48.348;7.878;2024-03-02T06:08:54;0.75;;;0.50;;
68010;SDS011;54794;48.348;7.878;2024-03-02T06:11:24;0.90;;;0.35;;
68010;SDS011;54794;48.348;7.878;2024-03-02T06:13:51;0.60;;;0.40;;
68010;SDS011;54794;48.348;7.878;2024-03-02T06:16:18;1.02;;;0.50;;
68010;SDS011;54794;48.348;7.878;2024-03-02T06:18:45;1.20;;;0.50;;
68010;SDS011;54794;48.348;7.878;2024-03-02T06:21:12;0.55;;;0.30;;
68010;SDS011;54794;48.348;7.878;2024-03-02T06:23:39;0.30;;;0.25;;
68010;SDS011;54794;48.348;7.878;2024-03-02T06:26:06;0.60;;;0.50;;
68010;SDS011;54794;48.348;7.878;2024-03-02T06:28:33;0.32;;;0.22;;
68010;SDS011;54794;48.348;7.878;2024-03-02T06:31:01;0.38;;;0.30;;
68010;SDS011;54794;48.348;7.878;2024-03-02T06:33:29;1.00;;;0.57;;
68010;SDS011;54794;48.348;7.878;2024-03-02T06:35:56;0.82;;;0.50;;
68010;SDS011;54794;48.348;7.878;2024-03-02T06:38:23;0.63;;;0.43;;
68010;SDS011;54794;48.348;7.878;2024-03-02T06:40:50;1.02;;;0.70;;
68010;SDS011;54794;48.348;7.878;2024-03-02T06:43:17;0.95;;;0.60;;
68010;SDS011;54794;48.348;7.878;2024-03-02T06:45:49;0.90;;;0.50;;
68010;SDS011;54794;48.348;7.878;2024-03-02T06:48:18;1.50;;;0.80;;
68010;SDS011;54794;48.348;7.878;2024-03-02T06:50:49;0.98;;;0.60;;
68010;SDS011;54794;48.348;7.878;2024-03-02T06:53:16;0.93;;;0.55;;
68010;SDS011;54794;48.348;7.878;2024-03-02T06:55:44;1.13;;;0.65;;
68010;SDS011;54794;48.348;7.878;2024-03-02T06:58:13;1.58;;;0.75;;
68010;SDS011;54794;48.348;7.878;2024-03-02T07:00:43;1.50;;;0.65;;
68010;SDS011;54794;48.348;7.878;2024-03-02T07:03:10;1.65;;;0.90;;
68010;SDS011;54794;48.348;7.878;2024-03-02T07:05:38;1.13;;;0.60;;
68010;SDS011;54794;48.348;7.878;2024-03-02T07:08:06;3.33;;;0.93;;
68010;SDS011;54794;48.348;7.878;2024-03-02T07:10:33;1.30;;;0.80;;
68010;SDS011;54794;48.348;7.878;2024-03-02T07:12:59;1.40;;;0.80;;
68010;SDS011;54794;48.348;7.878;2024-03-02T07:15:27;1.50;;;0.70;;
68010;SDS011;54794;48.348;7.878;2024-03-02T07:17:54;0.70;;;0.50;;
68010;SDS011;54794;48.348;7.878;2024-03-02T07:22:48;0.88;;;0.60;;
68010;SDS011;54794;48.348;7.878;2024-03-02T07:25:15;0.90;;;0.60;;
68010;SDS011;54794;48.348;7.878;2024-03-02T07:27:45;1.88;;;0.88;;
68010;SDS011;54794;48.348;7.878;2024-03-02T07:30:15;0.93;;;0.60;;
68010;SDS011;54794;48.348;7.878;2024-03-02T07:32:44;1.33;;;0.82;;
68010;SDS011;54794;48.348;7.878;2024-03-02T07:37:41;1.20;;;0.40;;
68010;SDS011;54794;48.348;7.878;2024-03-02T07:40:09;0.68;;;0.50;;
68010;SDS011;54794;48.348;7.878;2024-03-02T07:42:40;0.80;;;0.45;;
68010;SDS011;54794;48.348;7.878;2024-03-02T07:45:07;0.77;;;0.50;;
68010;SDS011;54794;48.348;7.878;2024-03-02T07:47:35;0.80;;;0.50;;
68010;SDS011;54794;48.348;7.878;2024-03-02T07:50:02;0.50;;;0.38;;
68010;SDS011;54794;48.348;7.878;2024-03-02T07:52:32;0.57;;;0.47;;
68010;SDS011;54794;48.348;7.878;2024-03-02T07:54:59;0.93;;;0.50;;
68010;SDS011;54794;48.348;7.878;2024-03-02T07:57:26;0.90;;;0.60;;
68010;SDS011;54794;48.348;7.878;2024-03-02T07:59:53;1.20;;;0.77;;
68010;SDS011;54794;48.348;7.878;2024-03-02T08:02:20;1.80;;;0.85;;
68010;SDS011;54794;48.348;7.878;2024-03-02T08:07:14;0.98;;;0.60;;
68010;SDS011;54794;48.348;7.878;2024-03-02T08:09:42;1.33;;;0.80;;
68010;SDS011;54794;48.348;7.878;2024-03-02T08:12:09;1.20;;;0.60;;
68010;SDS011;54794;48.348;7.878;2024-03-02T08:14:35;0.85;;;0.60;;
68010;SDS011;54794;48.348;7.878;2024-03-02T08:17:07;0.63;;;0.50;;
68010;SDS011;54794;48.348;7.878;2024-03-02T08:19:36;0.80;;;0.40;;
68010;SDS011;54794;48.348;7.878;2024-03-02T08:22:03;0.88;;;0.50;;
68010;SDS011;54794;48.348;7.878;2024-03-02T08:24:31;0.90;;;0.63;;
68010;SDS011;54794;48.348;7.878;2024-03-02T08:29:26;1.33;;;0.75;;
68010;SDS011;54794;48.348;7.878;2024-03-02T08:31:54;1.77;;;0.95;;
68010;SDS011;54794;48.348;7.878;2024-03-02T08:34:20;1.23;;;0.70;;
68010;SDS011;54794;48.348;7.878;2024-03-02T08:36:47;0.82;;;0.52;;
68010;SDS011;54794;48.348;7.878;2024-03-02T08:39:15;1.80;;;0.70;;
68010;SDS011;54794;48.348;7.878;2024-03-02T08:41:43;1.63;;;0.80;;
68010;SDS011;54794;48.348;7.878;2024-03-02T08:44:11;1.40;;;0.75;;
68010;SDS011;54794;48.348;7.878;2024-03-02T08:46:40;1.17;;;0.57;;
68010;SDS011;54794;48.348;7.878;2024-03-02T08:49:07;1.30;;;0.80;;
68010;SDS011;54794;48.348;7.878;2024-03-02T08:51:34;1.40;;;0.80;;
68010;SDS011;54794;48.348;7.878;2024-03-02T08:54:04;1.35;;;0.77;;
68010;SDS011;54794;48.348;7.878;2024-03-02T08:56:31;1.13;;;0.63;;
68010;SDS011;54794;48.348;7.878;2024-03-02T08:58:58;0.88;;;0.65;;
68010;SDS011;54794;48.348;7.878;2024-03-02T09:01:25;2.00;;;0.90;;
68010;SDS011;54794;48.348;7.878;2024-03-02T09:03:52;1.83;;;0.95;;
68010;SDS011;54794;48.348;7.878;2024-03-02T09:06:19;1.67;;;1.10;;
68010;SDS011;54794;48.348;7.878;2024-03-02T09:08:51;2.08;;;1.27;;
68010;SDS011;54794;48.348;7.878;2024-03-02T09:11:21;5.03;;;1.17;;
68010;SDS011;54794;48.348;7.878;2024-03-02T09:13:50;1.60;;;1.10;;
68010;SDS011;54794;48.348;7.878;2024-03-02T09:16:27;1.65;;;1.20;;
68010;SDS011;54794;48.348;7.878;2024-03-02T09:19:02;3.72;;;1.27;;
68010;SDS011;54794;48.348;7.878;2024-03-02T09:21:34;2.55;;;1.30;;
68010;SDS011;54794;48.348;7.878;2024-03-02T09:24:01;1.83;;;1.25;;
68010;SDS011;54794;48.348;7.878;2024-03-02T09:26:29;3.40;;;1.80;;
68010;SDS011;54794;48.348;7.878;2024-03-02T09:28:57;3.58;;;1.42;;
68010;SDS011;54794;48.348;7.878;2024-03-02T09:31:23;2.40;;;1.50;;
68010;SDS011;54794;48.348;7.878;2024-03-02T09:33:50;2.60;;;1.60;;
68010;SDS011;54794;48.348;7.878;2024-03-02T09:36:20;3.70;;;1.80;;
68010;SDS011;54794;48.348;7.878;2024-03-02T09:38:49;2.35;;;1.38;;
68010;SDS011;54794;48.348;7.878;2024-03-02T09:41:16;1.75;;;1.25;;
68010;SDS011;54794;48.348;7.878;2024-03-02T09:43:43;2.05;;;1.50;;
68010;SDS011;54794;48.348;7.878;2024-03-02T09:46:10;3.35;;;1.58;;
68010;SDS011;54794;48.348;7.878;2024-03-02T09:51:05;1.73;;;1.08;;
68010;SDS011;54794;48.348;7.878;2024-03-02T09:53:32;1.90;;;0.88;;
68010;SDS011;54794;48.348;7.878;2024-03-02T09:56:00;2.45;;;1.20;;
68010;SDS011;54794;48.348;7.878;2024-03-02T09:58:28;2.05;;;1.23;;
68010;SDS011;54794;48.348;7.878;2024-03-02T10:00:55;1.92;;;1.15;;
68010;SDS011;54794;48.348;7.878;2024-03-02T10:03:22;3.10;;;1.10;;
68010;SDS011;54794;48.348;7.878;2024-03-02T10:05:52;2.22;;;1.13;;
68010;SDS011;54794;48.348;7.878;2024-03-02T10:08:19;1.80;;;0.93;;
68010;SDS011;54794;48.348;7.878;2024-03-02T10:10:46;2.00;;;1.08;;
68010;SDS011;54794;48.348;7.878;2024-03-02T10:13:13;1.33;;;0.95;;
68010;SDS011;54794;48.348;7.878;2024-03-02T10:15:40;1.75;;;1.08;;
68010;SDS011;54794;48.348;7.878;2024-03-02T10:18:09;1.50;;;1.02;;
68010;SDS011;54794;48.348;7.878;2024-03-02T10:20:38;2.05;;;1.30;;
68010;SDS011;54794;48.348;7.878;2024-03-02T10:23:10;2.58;;;1.42;;
68010;SDS011;54794;48.348;7.878;2024-03-02T10:25:40;3.70;;;1.70;;
68010;SDS011;54794;48.348;7.878;2024-03-02T10:28:22;3.25;;;1.67;;
68010;SDS011;54794;48.348;7.878;2024-03-02T10:30:49;3.35;;;2.03;;
68010;SDS011;54794;48.348;7.878;2024-03-02T10:33:19;3.65;;;1.92;;
68010;SDS011;54794;48.348;7.878;2024-03-02T10:35:47;3.63;;;2.05;;
68010;SDS011;54794;48.348;7.878;2024-03-02T10:38:16;2.92;;;1.55;;
68010;SDS011;54794;48.348;7.878;2024-03-02T10:40:47;4.40;;;1.98;;
68010;SDS011;54794;48.348;7.878;2024-03-02T10:43:16;3.38;;;1.85;;
68010;SDS011;54794;48.348;7.878;2024-03-02T10:45:47;3.20;;;1.70;;
68010;SDS011;54794;48.348;7.878;2024-03-02T10:48:17;2.72;;;1.40;;
68010;SDS011;54794;48.348;7.878;2024-03-02T10:50:44;3.08;;;1.25;;
68010;SDS011;54794;48.348;7.878;2024-03-02T10:53:11;2.50;;;1.50;;
68010;SDS011;54794;48.348;7.878;2024-03-02T10:55:39;2.60;;;1.42;;
68010;SDS011;54794;48.348;7.878;2024-03-02T10:58:06;2.78;;;1.50;;
68010;SDS011;54794;48.348;7.878;2024-03-02T11:00:38;1.48;;;0.90;;
68010;SDS011;54794;48.348;7.878;2024-03-02T11:03:09;1.23;;;0.77;;
68010;SDS011;54794;48.348;7.878;2024-03-02T11:05:39;0.88;;;0.50;;
68010;SDS011;54794;48.348;7.878;2024-03-02T11:08:12;0.52;;;0.32;;
68010;SDS011;54794;48.348;7.878;2024-03-02T11:10:48;0.73;;;0.32;;
68010;SDS011;54794;48.348;7.878;2024-03-02T11:13:21;0.45;;;0.30;;
68010;SDS011;54794;48.348;7.878;2024-03-02T11:15:57;0.68;;;0.38;;
68010;SDS011;54794;48.348;7.878;2024-03-02T11:18:32;0.40;;;0.20;;
68010;SDS011;54794;48.348;7.878;2024-03-02T11:21:00;0.75;;;0.40;;
68010;SDS011;54794;48.348;7.878;2024-03-02T11:23:33;0.22;;;0.20;;
68010;SDS011;54794;48.348;7.878;2024-03-02T11:26:17;0.32;;;0.22;;
68010;SDS011;54794;48.348;7.878;2024-03-02T11:28:48;0.43;;;0.30;;
68010;SDS011;54794;48.348;7.878;2024-03-02T11:31:15;0.20;;;0.20;;
68010;SDS011;54794;48.348;7.878;2024-03-02T11:37:17;0.52;;;0.30;;
68010;SDS011;54794;48.348;7.878;2024-03-02T11:39:49;0.65;;;0.30;;
68010;SDS011;54794;48.348;7.878;2024-03-02T11:42:17;0.20;;;0.10;;
68010;SDS011;54794;48.348;7.878;2024-03-02T11:44:45;0.25;;;0.10;;
68010;SDS011;54794;48.348;7.878;2024-03-02T11:47:15;0.40;;;0.20;;
68010;SDS011;54794;48.348;7.878;2024-03-02T11:49:50;1.10;;;0.40;;
68010;SDS011;54794;48.348;7.878;2024-03-02T11:52:18;0.47;;;0.20;;
68010;SDS011;54794;48.348;7.878;2024-03-02T11:54:48;0.57;;;0.20;;
68010;SDS011;54794;48.348;7.878;2024-03-02T11:57:18;0.20;;;0.20;;
68010;SDS011;54794;48.348;7.878;2024-03-02T11:59:49;0.30;;;0.20;;
68010;SDS011;54794;48.348;7.878;2024-03-02T12:02:19;0.25;;;0.10;;
68010;SDS011;54794;48.348;7.878;2024-03-02T12:04:49;0.80;;;0.22;;
68010;SDS011;54794;48.348;7.878;2024-03-02T12:10:00;0.22;;;0.20;;
68010;SDS011;54794;48.348;7.878;2024-03-02T12:12:31;0.40;;;0.13;;
68010;SDS011;54794;48.348;7.878;2024-03-02T12:14:59;0.30;;;0.17;;
68010;SDS011;54794;48.348;7.878;2024-03-02T12:17:29;0.30;;;0.20;;
68010;SDS011;54794;48.348;7.878;2024-03-02T12:20:01;0.52;;;0.10;;
68010;SDS011;54794;48.348;7.878;2024-03-02T12:22:30;0.30;;;0.20;;
68010;SDS011;54794;48.348;7.878;2024-03-02T12:25:00;0.30;;;0.15;;
68010;SDS011;54794;48.348;7.878;2024-03-02T12:30:02;0.17;;;0.10;;
68010;SDS011;54794;48.348;7.878;2024-03-02T12:32:42;0.10;;;0.10;;
68010;SDS011;54794;48.348;7.878;2024-03-02T12:35:17;0.15;;;0.15;;
68010;SDS011;54794;48.348;7.878;2024-03-02T12:37:45;0.35;;;0.20;;
68010;SDS011;54794;48.348;7.878;2024-03-02T12:40:18;0.17;;;0.17;;
68010;SDS011;54794;48.348;7.878;2024-03-02T12:42:48;0.30;;;0.13;;
68010;SDS011;54794;48.348;7.878;2024-03-02T12:45:17;0.40;;;0.30;;
68010;SDS011;54794;48.348;7.878;2024-03-02T12:47:53;0.30;;;0.20;;
68010;SDS011;54794;48.348;7.878;2024-03-02T12:50:23;0.60;;;0.30;;
68010;SDS011;54794;48.348;7.878;2024-03-02T12:52:54;0.52;;;0.30;;
68010;SDS011;54794;48.348;7.878;2024-03-02T12:55:22;0.57;;;0.30;;
68010;SDS011;54794;48.348;7.878;2024-03-02T12:57:51;0.68;;;0.35;;
68010;SDS011;54794;48.348;7.878;2024-03-02T13:00:20;0.70;;;0.38;;
68010;SDS011;54794;48.348;7.878;2024-03-02T13:02:49;0.52;;;0.30;;
68010;SDS011;54794;48.348;7.878;2024-03-02T13:05:18;1.02;;;0.38;;
68010;SDS011;54794;48.348;7.878;2024-03-02T13:07:49;0.60;;;0.20;;
68010;SDS011;54794;48.348;7.878;2024-03-02T13:10:17;0.50;;;0.22;;
68010;SDS011;54794;48.348;7.878;2024-03-02T13:12:45;0.60;;;0.28;;
68010;SDS011;54794;48.348;7.878;2024-03-02T13:15:12;0.80;;;0.30;;
68010;SDS011;54794;48.348;7.878;2024-03-02T13:17:44;0.40;;;0.20;;
68010;SDS011;54794;48.348;7.878;2024-03-02T13:20:15;0.25;;;0.17;;
68010;SDS011;54794;48.348;7.878;2024-03-02T13:22:44;0.28;;;0.10;;
68010;SDS011;54794;48.348;7.878;2024-03-02T13:25:11;0.25;;;0.20;;
68010;SDS011;54794;48.348;7.878;2024-03-02T13:27:38;0.75;;;0.30;;
68010;SDS011;54794;48.348;7.878;2024-03-02T13:30:06;0.20;;;0.10;;
68010;SDS011;54794;48.348;7.878;2024-03-02T13:32:36;0.65;;;0.20;;
68010;SDS011;54794;48.348;7.878;2024-03-02T13:35:06;0.40;;;0.20;;
68010;SDS011;54794;48.348;7.878;2024-03-02T13:37:40;0.30;;;0.20;;
68010;SDS011;54794;48.348;7.878;2024-03-02T13:40:10;0.55;;;0.40;;
68010;SDS011;54794;48.348;7.878;2024-03-02T13:42:46;0.40;;;0.30;;
68010;SDS011;54794;48.348;7.878;2024-03-02T13:45:18;0.70;;;0.32;;
68010;SDS011;54794;48.348;7.878;2024-03-02T13:48:12;0.15;;;0.10;;
68010;SDS011;54794;48.348;7.878;2024-03-02T13:50:48;0.80;;;0.40;;
68010;SDS011;54794;48.348;7.878;2024-03-02T13:53:18;0.25;;;0.20;;
68010;SDS011;54794;48.348;7.878;2024-03-02T13:55:51;0.20;;;0.20;;
68010;SDS011;54794;48.348;7.878;2024-03-02T13:58:29;0.40;;;0.40;;
68010;SDS011;54794;48.348;7.878;2024-03-02T14:00:56;0.40;;;0.30;;
68010;SDS011;54794;48.348;7.878;2024-03-02T14:03:31;0.57;;;0.30;;
68010;SDS011;54794;48.348;7.878;2024-03-02T14:06:04;1.17;;;0.38;;
68010;SDS011;54794;48.348;7.878;2024-03-02T14:08:36;0.47;;;0.20;;
68010;SDS011;54794;48.348;7.878;2024-03-02T14:11:03;1.15;;;0.40;;
68010;SDS011;54794;48.348;7.878;2024-03-02T14:13:34;0.90;;;0.43;;
68010;SDS011;54794;48.348;7.878;2024-03-02T14:16:16;0.20;;;0.10;;
68010;SDS011;54794;48.348;7.878;2024-03-02T14:18:49;0.90;;;0.43;;
68010;SDS011;54794;48.348;7.878;2024-03-02T14:21:17;0.52;;;0.20;;
68010;SDS011;54794;48.348;7.878;2024-03-02T14:23:47;0.52;;;0.30;;
68010;SDS011;54794;48.348;7.878;2024-03-02T14:26:20;0.85;;;0.35;;
68010;SDS011;54794;48.348;7.878;2024-03-02T14:28:49;0.32;;;0.22;;
68010;SDS011;54794;48.348;7.878;2024-03-02T14:31:21;0.73;;;0.40;;
68010;SDS011;54794;48.348;7.878;2024-03-02T14:33:48;0.20;;;0.17;;
68010;SDS011;54794;48.348;7.878;2024-03-02T14:36:15;0.50;;;0.30;;
68010;SDS011;54794;48.348;7.878;2024-03-02T14:38:42;0.40;;;0.20;;
68010;SDS011;54794;48.348;7.878;2024-03-02T14:41:12;0.47;;;0.30;;
68010;SDS011;54794;48.348;7.878;2024-03-02T14:43:41;0.52;;;0.25;;
68010;SDS011;54794;48.348;7.878;2024-03-02T14:46:13;0.13;;;0.10;;
68010;SDS011;54794;48.348;7.878;2024-03-02T14:48:40;0.60;;;0.20;;
68010;SDS011;54794;48.348;7.878;2024-03-02T14:51:07;0.82;;;0.20;;
68010;SDS011;54794;48.348;7.878;2024-03-02T14:53:34;0.20;;;0.13;;
68010;SDS011;54794;48.348;7.878;2024-03-02T14:56:01;0.13;;;0.10;;
68010;SDS011;54794;48.348;7.878;2024-03-02T14:58:28;0.45;;;0.22;;
68010;SDS011;54794;48.348;7.878;2024-03-02T15:00:55;0.43;;;0.30;;
68010;SDS011;54794;48.348;7.878;2024-03-02T15:03:22;0.20;;;0.10;;
68010;SDS011;54794;48.348;7.878;2024-03-02T15:05:49;0.15;;;0.15;;
68010;SDS011;54794;48.348;7.878;2024-03-02T15:08:17;0.38;;;0.22;;
68010;SDS011;54794;48.348;7.878;2024-03-02T15:10:44;0.43;;;0.20;;
68010;SDS011;54794;48.348;7.878;2024-03-02T15:13:11;0.35;;;0.30;;
68010;SDS011;54794;48.348;7.878;2024-03-02T15:18:05;0.50;;;0.40;;
68010;SDS011;54794;48.348;7.878;2024-03-02T15:20:32;0.40;;;0.30;;
68010;SDS011;54794;48.348;7.878;2024-03-02T15:23:02;0.93;;;0.20;;
68010;SDS011;54794;48.348;7.878;2024-03-02T15:25:29;0.40;;;0.30;;
68010;SDS011;54794;48.348;7.878;2024-03-02T15:27:56;0.75;;;0.40;;
68010;SDS011;54794;48.348;7.878;2024-03-02T15:30:23;0.82;;;0.30;;
68010;SDS011;54794;48.348;7.878;2024-03-02T15:32:50;0.65;;;0.30;;